createdAt,value
2019-05-21T00:00:17.988Z,1000.79
2019-05-21T00:01:36.431Z,1000.79
2019-05-21T00:02:28.760Z,1000.84
2019-05-21T00:02:54.933Z,1000.79
2019-05-21T00:03:47.224Z,1000.78
2019-05-21T00:04:39.538Z,1000.88
2019-05-21T00:05:05.694Z,1000.82
2019-05-21T00:05:57.978Z,1000.8
2019-05-21T00:07:16.418Z,1000.79
2019-05-21T00:08:08.793Z,1000.86
2019-05-21T00:08:34.981Z,1000.85
2019-05-21T00:09:27.255Z,1000.86
2019-05-21T00:10:19.575Z,1000.86
2019-05-21T00:10:45.741Z,1000.89
2019-05-21T00:11:38.049Z,1000.89
2019-05-21T00:12:56.549Z,1000.86
2019-05-21T00:13:48.868Z,1000.81
2019-05-21T00:14:15.037Z,1000.8
2019-05-21T00:15:07.354Z,1000.78
2019-05-21T00:15:59.719Z,1000.83
2019-05-21T00:16:25.865Z,1000.84
2019-05-21T00:17:18.211Z,1000.74
2019-05-21T00:18:36.684Z,1000.78
2019-05-21T00:19:28.998Z,1000.8
2019-05-21T00:19:55.139Z,1000.79
2019-05-21T00:20:47.426Z,1000.77
2019-05-21T00:21:39.802Z,1000.8
2019-05-21T00:22:05.941Z,1000.79
2019-05-21T00:22:58.384Z,1000.8
2019-05-21T00:24:16.810Z,1000.87
2019-05-21T00:25:09.194Z,1000.83
2019-05-21T00:25:35.352Z,1000.86
2019-05-21T00:26:27.640Z,1000.89
2019-05-21T00:27:19.977Z,1000.91
2019-05-21T00:27:46.132Z,1000.91
2019-05-21T00:28:38.450Z,1000.94
2019-05-21T00:29:56.941Z,1000.91
2019-05-21T00:30:49.227Z,1000.93
2019-05-21T00:31:15.393Z,1000.9
2019-05-21T00:32:07.690Z,1000.87
2019-05-21T00:33:00.008Z,1000.9
2019-05-21T00:33:26.171Z,1000.87
2019-05-21T00:34:18.472Z,1000.9
2019-05-21T00:34:46.619Z,1000.87
2019-05-21T00:35:38.906Z,1000.87
2019-05-21T00:36:05.047Z,1000.88
2019-05-21T00:36:57.825Z,1000.87
2019-05-21T00:37:49.751Z,1000.89
2019-05-21T00:38:15.911Z,1000.89
2019-05-21T00:39:08.250Z,1000.92
2019-05-21T00:40:26.700Z,1000.89
2019-05-21T00:41:19.027Z,1000.94
2019-05-21T00:41:45.180Z,1000.9
2019-05-21T00:42:37.478Z,1000.97
2019-05-21T00:43:29.789Z,1000.94
2019-05-21T00:43:55.934Z,1000.95
2019-05-21T00:44:48.219Z,1000.9
2019-05-21T00:46:06.669Z,1000.89
2019-05-21T00:46:59.007Z,1000.91
2019-05-21T00:47:25.169Z,1000.93
2019-05-21T00:48:17.457Z,1000.88
2019-05-21T00:49:09.752Z,1000.92
2019-05-21T00:49:36.046Z,1000.86
2019-05-21T00:50:28.270Z,1000.93
2019-05-21T00:51:46.750Z,1000.94
2019-05-21T00:53:06.901Z,1000.91
2019-05-21T00:53:59.213Z,1000.89
2019-05-21T00:54:25.353Z,1000.94
2019-05-21T00:55:17.649Z,1000.87
2019-05-21T00:56:36.971Z,1000.85
2019-05-21T00:57:29.312Z,1000.89
2019-05-21T00:57:55.520Z,1000.9
2019-05-21T00:58:21.594Z,1000.87
2019-05-21T00:58:47.711Z,1000.83
2019-05-21T00:59:40.027Z,1000.78
2019-05-21T01:00:58.606Z,1000.86
2019-05-21T01:01:50.908Z,1000.81
2019-05-21T01:02:17.050Z,1000.76
2019-05-21T01:03:09.391Z,1000.76
2019-05-21T01:04:28.897Z,1000.75
2019-05-21T01:05:48.347Z,1000.77
2019-05-21T01:06:40.646Z,1000.8
2019-05-21T01:07:06.808Z,1000.83
2019-05-21T01:07:59.103Z,1000.8
2019-05-21T01:08:51.417Z,1000.81
2019-05-21T01:09:17.551Z,1000.75
2019-05-21T01:10:09.865Z,1000.78
2019-05-21T01:11:28.325Z,1000.66
2019-05-21T01:12:20.668Z,1000.84
2019-05-21T01:12:46.807Z,1000.79
2019-05-21T01:13:39.108Z,1000.81
2019-05-21T01:14:31.416Z,1000.77
2019-05-21T01:14:57.554Z,1000.81
2019-05-21T01:15:49.867Z,1000.83
2019-05-21T01:17:08.381Z,1000.77
2019-05-21T01:18:00.673Z,1000.8
2019-05-21T01:18:26.837Z,1000.7
2019-05-21T01:19:19.144Z,1000.77
2019-05-21T01:20:11.459Z,1000.74
2019-05-21T01:20:37.616Z,1000.72
2019-05-21T01:21:29.979Z,1000.76
2019-05-21T01:22:48.494Z,1000.74
2019-05-21T01:23:40.784Z,1000.72
2019-05-21T01:24:06.950Z,1000.76
2019-05-21T01:24:59.234Z,1000.72
2019-05-21T01:25:51.532Z,1000.71
2019-05-21T01:26:17.695Z,1000.76
2019-05-21T01:27:10.038Z,1000.68
2019-05-21T01:28:28.530Z,1000.73
2019-05-21T01:29:20.824Z,1000.79
2019-05-21T01:29:46.994Z,1000.73
2019-05-21T01:30:39.276Z,1000.71
2019-05-21T01:31:31.567Z,1000.62
2019-05-21T01:31:57.705Z,1000.72
2019-05-21T01:32:50.057Z,1000.71
2019-05-21T01:34:11.218Z,1000.73
2019-05-21T01:35:28.076Z,1000.7
2019-05-21T01:36:20.366Z,1000.73
2019-05-21T01:36:46.518Z,1000.7
2019-05-21T01:37:38.857Z,1000.75
2019-05-21T01:38:31.161Z,1000.72
2019-05-21T01:38:57.305Z,1000.7
2019-05-21T01:39:49.642Z,1000.69
2019-05-21T01:41:08.155Z,1000.77
2019-05-21T01:42:00.442Z,1000.69
2019-05-21T01:42:26.581Z,1000.71
2019-05-21T01:43:18.864Z,1000.65
2019-05-21T01:44:11.148Z,1000.67
2019-05-21T01:44:37.338Z,1000.76
2019-05-21T01:45:29.640Z,1000.76
2019-05-21T01:46:48.135Z,1000.77
2019-05-21T01:47:40.430Z,1000.75
2019-05-21T01:48:06.590Z,1000.81
2019-05-21T01:48:58.884Z,1000.77
2019-05-21T01:49:51.233Z,1000.73
2019-05-21T01:50:17.403Z,1000.83
2019-05-21T01:51:09.691Z,1000.81
2019-05-21T01:52:28.165Z,1000.79
2019-05-21T01:53:20.470Z,1000.82
2019-05-21T01:53:46.603Z,1000.81
2019-05-21T01:54:38.895Z,1000.81
2019-05-21T01:55:31.212Z,1000.84
2019-05-21T01:55:57.355Z,1000.82
2019-05-21T01:56:49.647Z,1000.91
2019-05-21T01:58:08.108Z,1000.9
2019-05-21T01:59:00.453Z,1000.97
2019-05-21T01:59:26.644Z,1000.85
2019-05-21T02:00:18.961Z,1000.89
2019-05-21T02:01:11.250Z,1000.92
2019-05-21T02:01:37.388Z,1000.92
2019-05-21T02:02:29.710Z,1000.93
2019-05-21T02:03:48.182Z,1000.92
2019-05-21T02:04:40.505Z,1000.93
2019-05-21T02:05:06.646Z,1000.87
2019-05-21T02:06:00.939Z,1000.88
2019-05-21T02:06:27.077Z,1001.01
2019-05-21T02:07:20.361Z,1000.94
2019-05-21T02:07:46.740Z,1000.96
2019-05-21T02:08:39.041Z,1000.98
2019-05-21T02:09:31.385Z,1001.02
2019-05-21T02:09:57.522Z,1000.94
2019-05-21T02:10:49.843Z,1000.97
2019-05-21T02:12:10.694Z,1000.96
2019-05-21T02:13:01.578Z,1001.02
2019-05-21T02:13:27.745Z,1001.04
2019-05-21T02:14:20.038Z,1001.09
2019-05-21T02:15:38.551Z,1001.09
2019-05-21T02:16:30.805Z,1001.1
2019-05-21T02:16:56.943Z,1001.15
2019-05-21T02:17:49.272Z,1001.14
2019-05-21T02:19:07.872Z,1001.12
2019-05-21T02:20:00.189Z,1001.13
2019-05-21T02:21:18.648Z,1001.12
2019-05-21T02:22:10.945Z,1001.14
2019-05-21T02:22:37.123Z,1001.19
2019-05-21T02:23:29.447Z,1001.13
2019-05-21T02:24:47.922Z,1001.16
2019-05-21T02:25:40.289Z,1001.15
2019-05-21T02:26:06.428Z,1001.16
2019-05-21T02:26:58.715Z,1001.18
2019-05-21T02:27:51.003Z,1001.15
2019-05-21T02:28:17.210Z,1001.18
2019-05-21T02:29:09.466Z,1001.14
2019-05-21T02:30:28.054Z,1001.1
2019-05-21T02:31:20.372Z,1001.17
2019-05-21T02:31:46.568Z,1001.2
2019-05-21T02:32:38.867Z,1001.18
2019-05-21T02:33:31.194Z,1001.18
2019-05-21T02:33:57.352Z,1001.16
2019-05-21T02:34:49.671Z,1001.16
2019-05-21T02:36:10.083Z,1001.16
2019-05-21T02:37:28.648Z,1001.16
2019-05-21T02:38:20.962Z,1001.22
2019-05-21T02:38:47.131Z,1001.21
2019-05-21T02:39:39.427Z,1001.19
2019-05-21T02:40:58.014Z,1001.23
2019-05-21T02:41:50.355Z,1001.19
2019-05-21T02:42:16.522Z,1001.16
2019-05-21T02:43:08.950Z,1001.22
2019-05-21T02:44:01.335Z,1001.22
2019-05-21T02:44:27.480Z,1001.24
2019-05-21T02:45:19.865Z,1001.26
2019-05-21T02:46:38.336Z,1001.23
2019-05-21T02:47:30.596Z,1001.26
2019-05-21T02:47:56.778Z,1001.23
2019-05-21T02:48:49.097Z,1001.24
2019-05-21T02:49:41.450Z,1001.24
2019-05-21T02:50:07.585Z,1001.23
2019-05-21T02:50:59.941Z,1001.28
2019-05-21T02:52:18.388Z,1001.26
2019-05-21T02:53:10.731Z,1001.26
2019-05-21T02:53:36.888Z,1001.28
2019-05-21T02:54:39.812Z,1001.29
2019-05-21T02:54:56.410Z,1001.26
2019-05-21T02:55:48.743Z,1001.24
2019-05-21T02:56:41.065Z,1001.25
2019-05-21T02:57:07.257Z,1001.35
2019-05-21T02:57:59.568Z,1001.28
2019-05-21T02:59:18.095Z,1001.3
2019-05-21T03:00:10.433Z,1001.26
2019-05-21T03:00:38.722Z,1001.31
2019-05-21T03:01:29.926Z,1001.26
2019-05-21T03:01:56.844Z,1001.25
2019-05-21T03:02:50.268Z,1001.28
2019-05-21T03:03:16.417Z,1001.24
2019-05-21T03:04:08.738Z,1001.27
2019-05-21T03:05:01.052Z,1001.23
2019-05-21T03:05:27.202Z,1001.29
2019-05-21T03:06:21.506Z,1001.24
2019-05-21T03:06:47.695Z,1001.25
2019-05-21T03:07:40.018Z,1001.22
2019-05-21T03:08:58.523Z,1001.24
2019-05-21T03:09:50.807Z,1001.22
2019-05-21T03:10:16.942Z,1001.25
2019-05-21T03:11:09.239Z,1001.23
2019-05-21T03:12:01.577Z,1001.29
2019-05-21T03:12:27.725Z,1001.23
2019-05-21T03:13:20.043Z,1001.21
2019-05-21T03:14:38.461Z,1001.18
2019-05-21T03:15:30.761Z,1001.25
2019-05-21T03:15:56.963Z,1001.23
2019-05-21T03:16:49.308Z,1001.21
2019-05-21T03:18:07.847Z,1001.29
2019-05-21T03:19:00.139Z,1001.32
2019-05-21T03:20:18.652Z,1001.31
2019-05-21T03:21:11.002Z,1001.34
2019-05-21T03:21:37.173Z,1001.31
2019-05-21T03:22:29.495Z,1001.35
2019-05-21T03:23:47.946Z,1001.43
2019-05-21T03:24:40.277Z,1001.42
2019-05-21T03:25:07.410Z,1001.46
2019-05-21T03:25:59.718Z,1001.46
2019-05-21T03:27:20.457Z,1001.51
2019-05-21T03:27:47.770Z,1001.49
2019-05-21T03:29:10.479Z,1001.58
2019-05-21T03:29:36.995Z,1001.51
2019-05-21T03:30:31.580Z,1001.55
2019-05-21T03:30:59.033Z,1001.56
2019-05-21T03:31:26.894Z,1001.58
2019-05-21T03:32:19.779Z,1001.55
2019-05-21T03:33:38.975Z,1001.51
2019-05-21T03:34:58.131Z,1001.49
2019-05-21T03:35:50.852Z,1001.51
2019-05-21T03:36:32.272Z,1001.5
2019-05-21T03:37:39.305Z,1001.51
2019-05-21T03:38:58.217Z,1001.48
2019-05-21T03:39:51.312Z,1001.49
2019-05-21T03:40:17.617Z,1001.48
2019-05-21T03:41:10.346Z,1001.47
2019-05-21T03:41:36.682Z,1001.44
2019-05-21T03:42:29.379Z,1001.51
2019-05-21T03:43:48.250Z,1001.47
2019-05-21T03:44:58.212Z,1001.48
2019-05-21T03:45:09.959Z,1001.52
2019-05-21T03:46:28.817Z,1001.49
2019-05-21T03:47:21.395Z,1001.54
2019-05-21T03:47:47.831Z,1001.58
2019-05-21T03:48:40.094Z,1001.51
2019-05-21T03:49:58.624Z,1001.55
2019-05-21T03:50:50.918Z,1001.58
2019-05-21T03:51:17.084Z,1001.53
2019-05-21T03:52:09.397Z,1001.56
2019-05-21T03:53:27.882Z,1001.48
2019-05-21T03:54:20.201Z,1001.58
2019-05-21T03:55:38.708Z,1001.55
2019-05-21T03:56:31.007Z,1001.52
2019-05-21T03:56:57.150Z,1001.57
2019-05-21T03:57:49.471Z,1001.54
2019-05-21T03:59:07.895Z,1001.58
2019-05-21T04:00:00.261Z,1001.57
2019-05-21T04:00:26.424Z,1001.51
2019-05-21T04:01:18.783Z,1001.54
2019-05-21T04:02:11.137Z,1001.52
2019-05-21T04:02:37.272Z,1001.51
2019-05-21T04:03:29.585Z,1001.49
2019-05-21T04:04:48.052Z,1001.48
2019-05-21T04:05:40.419Z,1001.53
2019-05-21T04:06:06.588Z,1001.51
2019-05-21T04:07:00.887Z,1001.49
2019-05-21T04:07:27.031Z,1001.46
2019-05-21T04:08:19.338Z,1001.49
2019-05-21T04:09:37.803Z,1001.5
2019-05-21T04:10:30.185Z,1001.49
2019-05-21T04:11:52.795Z,1001.48
2019-05-21T04:13:08.591Z,1001.48
2019-05-21T04:14:00.544Z,1001.53
2019-05-21T04:14:26.702Z,1001.5
2019-05-21T04:15:18.985Z,1001.58
2019-05-21T04:16:11.278Z,1001.55
2019-05-21T04:16:37.475Z,1001.52
2019-05-21T04:17:33.742Z,1001.58
2019-05-21T04:18:48.306Z,1001.6
2019-05-21T04:19:40.659Z,1001.6
2019-05-21T04:20:06.783Z,1001.59
2019-05-21T04:20:59.104Z,1001.62
2019-05-21T04:21:51.401Z,1001.61
2019-05-21T04:22:17.545Z,1001.62
2019-05-21T04:23:09.876Z,1001.62
2019-05-21T04:24:28.480Z,1001.62
2019-05-21T04:25:20.776Z,1001.59
2019-05-21T04:25:46.920Z,1001.6
2019-05-21T04:26:39.245Z,1001.63
2019-05-21T04:27:31.562Z,1001.57
2019-05-21T04:27:57.700Z,1001.58
2019-05-21T04:28:49.988Z,1001.59
2019-05-21T04:30:11.156Z,1001.58
2019-05-21T04:31:27.858Z,1001.59
2019-05-21T04:32:20.143Z,1001.57
2019-05-21T04:33:38.711Z,1001.57
2019-05-21T04:34:31.088Z,1001.57
2019-05-21T04:34:57.227Z,1001.61
2019-05-21T04:35:49.550Z,1001.62
2019-05-21T04:37:11.154Z,1001.62
2019-05-21T04:38:01.353Z,1001.67
2019-05-21T04:38:27.496Z,1001.62
2019-05-21T04:39:19.871Z,1001.66
2019-05-21T04:40:38.367Z,1001.63
2019-05-21T04:41:30.658Z,1001.7
2019-05-21T04:41:56.824Z,1001.62
2019-05-21T04:42:49.144Z,1001.7
2019-05-21T04:44:08.597Z,1001.69
2019-05-21T04:45:00.956Z,1001.75
2019-05-21T04:45:27.090Z,1001.77
2019-05-21T04:46:19.414Z,1001.76
2019-05-21T04:47:37.896Z,1001.73
2019-05-21T04:48:30.241Z,1001.77
2019-05-21T04:48:56.441Z,1001.79
2019-05-21T04:49:48.846Z,1001.76
2019-05-21T04:50:41.150Z,1001.82
2019-05-21T04:51:07.317Z,1001.85
2019-05-21T04:51:59.687Z,1001.8
2019-05-21T04:53:18.158Z,1001.75
2019-05-21T04:54:10.485Z,1001.8
2019-05-21T04:54:36.653Z,1001.78
2019-05-21T04:55:28.970Z,1001.79
2019-05-21T04:56:21.297Z,1001.81
2019-05-21T04:56:47.491Z,1001.81
2019-05-21T04:57:39.814Z,1001.81
2019-05-21T04:58:58.272Z,1001.72
2019-05-21T04:59:50.627Z,1001.72
2019-05-21T05:00:16.822Z,1001.79
2019-05-21T05:01:09.236Z,1001.82
2019-05-21T05:02:01.583Z,1001.82
2019-05-21T05:02:27.729Z,1001.77
2019-05-21T05:03:20.019Z,1001.79
2019-05-21T05:04:38.476Z,1001.82
2019-05-21T05:05:30.794Z,1001.84
2019-05-21T05:05:56.992Z,1001.82
2019-05-21T05:06:49.307Z,1001.81
2019-05-21T05:08:07.839Z,1001.81
2019-05-21T05:09:00.129Z,1001.82
2019-05-21T05:09:26.618Z,1001.81
2019-05-21T05:10:19.125Z,1001.78
2019-05-21T05:11:11.602Z,1001.8
2019-05-21T05:11:37.805Z,1001.85
2019-05-21T05:12:30.118Z,1001.79
2019-05-21T05:13:48.611Z,1001.84
2019-05-21T05:14:40.912Z,1001.81
2019-05-21T05:15:07.051Z,1001.82
2019-05-21T05:15:59.395Z,1001.86
2019-05-21T05:17:17.872Z,1001.78
2019-05-21T05:18:10.389Z,1001.88
2019-05-21T05:18:36.524Z,1001.84
2019-05-21T05:19:28.819Z,1001.81
2019-05-21T05:20:21.236Z,1001.84
2019-05-21T05:20:47.405Z,1001.86
2019-05-21T05:21:39.685Z,1001.87
2019-05-21T05:22:58.205Z,1001.86
2019-05-21T05:23:50.545Z,1001.9
2019-05-21T05:24:16.785Z,1001.91
2019-05-21T05:25:09.057Z,1001.95
2019-05-21T05:26:01.349Z,1001.99
2019-05-21T05:26:27.516Z,1001.97
2019-05-21T05:27:19.806Z,1001.95
2019-05-21T05:28:38.296Z,1002.04
2019-05-21T05:29:30.619Z,1002.02
2019-05-21T05:29:56.748Z,1002.04
2019-05-21T05:30:49.115Z,1002.05
2019-05-21T05:31:41.444Z,1002.05
2019-05-21T05:32:07.584Z,1002.05
2019-05-21T05:32:59.871Z,1002.09
2019-05-21T05:34:18.291Z,1002.13
2019-05-21T05:35:10.619Z,1002.13
2019-05-21T05:35:36.741Z,1002.11
2019-05-21T05:36:29.067Z,1002.08
2019-05-21T05:37:21.446Z,1002.12
2019-05-21T05:37:48.853Z,1002.09
2019-05-21T05:38:40.916Z,1002.15
2019-05-21T05:39:07.049Z,1002.14
2019-05-21T05:39:59.348Z,1002.16
2019-05-21T05:41:17.820Z,1002.23
2019-05-21T05:42:10.135Z,1002.19
2019-05-21T05:43:28.596Z,1002.25
2019-05-21T05:44:20.912Z,1002.26
2019-05-21T05:44:47.056Z,1002.29
2019-05-21T05:45:39.385Z,1002.27
2019-05-21T05:46:57.896Z,1002.24
2019-05-21T05:47:50.208Z,1002.31
2019-05-21T05:49:09.688Z,1002.34
2019-05-21T05:50:28.159Z,1002.3
2019-05-21T05:51:20.513Z,1002.33
2019-05-21T05:51:46.707Z,1002.34
2019-05-21T05:52:39.031Z,1002.32
2019-05-21T05:53:31.318Z,1002.34
2019-05-21T05:53:57.458Z,1002.34
2019-05-21T05:54:49.810Z,1002.33
2019-05-21T05:56:08.323Z,1002.46
2019-05-21T05:57:00.762Z,1002.43
2019-05-21T05:57:26.899Z,1002.42
2019-05-21T05:58:19.245Z,1002.39
2019-05-21T05:59:14.172Z,1002.41
2019-05-21T05:59:38.663Z,1002.43
2019-05-21T06:00:31.073Z,1002.42
2019-05-21T06:00:57.234Z,1002.38
2019-05-21T06:01:49.637Z,1002.44
2019-05-21T06:03:08.132Z,1002.44
2019-05-21T06:04:00.451Z,1002.48
2019-05-21T06:04:26.602Z,1002.46
2019-05-21T06:05:18.979Z,1002.43
2019-05-21T06:06:11.575Z,1002.41
2019-05-21T06:06:37.719Z,1002.43
2019-05-21T06:07:30.021Z,1002.4
2019-05-21T06:08:00.041Z,1002.47
2019-05-21T06:08:50.604Z,1002.44
2019-05-21T06:09:16.782Z,1002.4
2019-05-21T06:10:09.136Z,1002.41
2019-05-21T06:11:01.452Z,1002.34
2019-05-21T06:11:27.624Z,1002.35
2019-05-21T06:12:19.914Z,1002.37
2019-05-21T06:13:38.436Z,1002.39
2019-05-21T06:14:30.746Z,1002.38
2019-05-21T06:14:56.904Z,1002.38
2019-05-21T06:15:49.263Z,1002.35
2019-05-21T06:16:41.576Z,1002.41
2019-05-21T06:17:07.766Z,1002.39
2019-05-21T06:18:00.065Z,1002.38
2019-05-21T06:19:18.490Z,1002.25
2019-05-21T06:20:10.782Z,1002.36
2019-05-21T06:20:36.947Z,1002.4
2019-05-21T06:21:29.244Z,1002.4
2019-05-21T06:22:21.593Z,1002.44
2019-05-21T06:22:47.805Z,1002.39
2019-05-21T06:23:40.119Z,1002.43
2019-05-21T06:24:59.607Z,1002.46
2019-05-21T06:26:18.132Z,1002.49
2019-05-21T06:27:10.532Z,1002.46
2019-05-21T06:27:36.710Z,1002.49
2019-05-21T06:28:29.029Z,1002.49
2019-05-21T06:29:21.335Z,1002.51
2019-05-21T06:29:48.468Z,1002.51
2019-05-21T06:30:40.803Z,1002.51
2019-05-21T06:31:06.955Z,1002.54
2019-05-21T06:31:59.280Z,1002.58
2019-05-21T06:33:17.834Z,1002.59
2019-05-21T06:34:10.138Z,1002.64
2019-05-21T06:35:29.579Z,1002.59
2019-05-21T06:36:48.074Z,1002.59
2019-05-21T06:37:40.398Z,1002.61
2019-05-21T06:38:16.948Z,1002.66
2019-05-21T06:38:59.942Z,1002.59
2019-05-21T06:40:18.556Z,1002.59
2019-05-21T06:41:10.888Z,1002.63
2019-05-21T06:41:37.053Z,1002.61
2019-05-21T06:42:29.363Z,1002.62
2019-05-21T06:43:47.836Z,1002.65
2019-05-21T06:44:40.179Z,1002.75
2019-05-21T06:45:58.717Z,1002.67
2019-05-21T06:46:51.043Z,1002.7
2019-05-21T06:47:17.183Z,1002.74
2019-05-21T06:48:09.473Z,1002.67
2019-05-21T06:49:27.969Z,1002.67
2019-05-21T06:50:20.321Z,1002.72
2019-05-21T06:50:46.462Z,1002.75
2019-05-21T06:51:38.792Z,1002.74
2019-05-21T06:52:31.066Z,1002.72
2019-05-21T06:52:57.258Z,1002.7
2019-05-21T06:53:49.607Z,1002.7
2019-05-21T06:55:08.117Z,1002.77
2019-05-21T06:56:00.435Z,1002.74
2019-05-21T06:56:26.575Z,1002.71
2019-05-21T06:57:18.978Z,1002.81
2019-05-21T06:58:11.300Z,1002.82
2019-05-21T06:58:37.447Z,1002.76
2019-05-21T06:59:29.786Z,1002.76
2019-05-21T07:00:48.306Z,1002.68
2019-05-21T07:02:08.121Z,1002.78
2019-05-21T07:03:00.592Z,1002.75
2019-05-21T07:03:26.827Z,1002.78
2019-05-21T07:04:19.433Z,1002.81
2019-05-21T07:05:38.021Z,1002.8
2019-05-21T07:06:31.319Z,1002.78
2019-05-21T07:06:57.469Z,1002.76
2019-05-21T07:07:49.807Z,1002.79
2019-05-21T07:09:09.627Z,1002.79
2019-05-21T07:10:28.383Z,1002.84
2019-05-21T07:11:20.705Z,1002.82
2019-05-21T07:11:46.844Z,1002.81
2019-05-21T07:12:39.139Z,1002.79
2019-05-21T07:13:31.468Z,1002.86
2019-05-21T07:13:57.671Z,1002.79
2019-05-21T07:14:50.067Z,1002.86
2019-05-21T07:16:08.508Z,1002.86
2019-05-21T07:17:00.802Z,1002.86
2019-05-21T07:17:26.982Z,1002.88
2019-05-21T07:18:19.361Z,1002.91
2019-05-21T07:18:46.480Z,1002.91
2019-05-21T07:19:38.799Z,1002.9
2019-05-21T07:20:31.115Z,1002.87
2019-05-21T07:20:57.286Z,1002.9
2019-05-21T07:21:49.618Z,1002.86
2019-05-21T07:22:16.746Z,1002.94
2019-05-21T07:23:09.431Z,1002.91
2019-05-21T07:24:28.356Z,1002.89
2019-05-21T07:25:20.992Z,1002.92
2019-05-21T07:25:47.134Z,1002.88
2019-05-21T07:26:39.549Z,1002.9
2019-05-21T07:27:58.091Z,1002.93
2019-05-21T07:28:50.804Z,1002.95
2019-05-21T07:29:16.725Z,1002.94
2019-05-21T07:30:09.035Z,1002.94
2019-05-21T07:31:01.326Z,1002.98
2019-05-21T07:31:27.518Z,1003.06
2019-05-21T07:32:19.853Z,1003.05
2019-05-21T07:33:38.524Z,1003.01
2019-05-21T07:34:30.843Z,1003.03
2019-05-21T07:34:57.005Z,1003.04
2019-05-21T07:35:49.387Z,1003.02
2019-05-21T07:37:07.919Z,1003.03
2019-05-21T07:38:00.306Z,1003.01
2019-05-21T07:38:26.499Z,1003.06
2019-05-21T07:39:19.816Z,1003.02
2019-05-21T07:40:38.289Z,1003.01
2019-05-21T07:41:30.957Z,1003.07
2019-05-21T07:41:57.125Z,1003.06
2019-05-21T07:42:49.506Z,1003.04
2019-05-21T07:44:08.023Z,1003.01
2019-05-21T07:45:00.351Z,1003.1
2019-05-21T07:45:26.518Z,1003.11
2019-05-21T07:46:18.841Z,1003.12
2019-05-21T07:47:11.229Z,1003.13
2019-05-21T07:47:37.368Z,1003.14
2019-05-21T07:48:29.747Z,1003.17
2019-05-21T07:49:48.207Z,1003.19
2019-05-21T07:50:40.549Z,1003.2
2019-05-21T07:51:06.702Z,1003.2
2019-05-21T07:51:59.005Z,1003.2
2019-05-21T07:52:51.388Z,1003.28
2019-05-21T07:53:17.537Z,1003.28
2019-05-21T07:54:09.933Z,1003.29
2019-05-21T07:55:28.536Z,1003.32
2019-05-21T07:56:20.839Z,1003.36
2019-05-21T07:56:47.050Z,1003.42
2019-05-21T07:57:39.360Z,1003.39
2019-05-21T07:58:57.919Z,1003.42
2019-05-21T07:59:50.238Z,1003.45
2019-05-21T08:00:16.993Z,1003.46
2019-05-21T08:01:09.367Z,1003.44
2019-05-21T08:02:27.908Z,1003.4
2019-05-21T08:03:20.197Z,1003.48
2019-05-21T08:04:38.658Z,1003.5
2019-05-21T08:05:30.981Z,1003.48
2019-05-21T08:05:57.113Z,1003.49
2019-05-21T08:06:49.483Z,1003.54
2019-05-21T08:08:07.973Z,1003.5
2019-05-21T08:09:12.179Z,1003.51
2019-05-21T08:09:28.399Z,1003.51
2019-05-21T08:10:20.742Z,1003.53
2019-05-21T08:10:46.884Z,1003.48
2019-05-21T08:11:39.231Z,1003.49
2019-05-21T08:13:00.655Z,1003.47
2019-05-21T08:13:26.807Z,1003.52
2019-05-21T08:14:19.094Z,1003.47
2019-05-21T08:15:11.386Z,1003.46
2019-05-21T08:15:37.524Z,1003.46
2019-05-21T08:16:29.832Z,1003.5
2019-05-21T08:17:48.309Z,1003.49
2019-05-21T08:18:40.632Z,1003.49
2019-05-21T08:19:06.801Z,1003.44
2019-05-21T08:20:08.399Z,1003.47
2019-05-21T08:20:27.221Z,1003.51
2019-05-21T08:21:19.543Z,1003.46
2019-05-21T08:22:38.020Z,1003.42
2019-05-21T08:23:30.319Z,1003.39
2019-05-21T08:23:56.446Z,1003.46
2019-05-21T08:24:48.741Z,1003.43
2019-05-21T08:25:41.102Z,1003.51
2019-05-21T08:26:07.257Z,1003.48
2019-05-21T08:26:59.592Z,1003.48
2019-05-21T08:28:18.109Z,1003.47
2019-05-21T08:29:10.451Z,1003.49
2019-05-21T08:29:36.593Z,1003.48
2019-05-21T08:30:28.938Z,1003.5
2019-05-21T08:31:21.283Z,1003.5
2019-05-21T08:31:47.455Z,1003.51
2019-05-21T08:32:39.818Z,1003.52
2019-05-21T08:33:58.299Z,1003.57
2019-05-21T08:34:50.578Z,1003.59
2019-05-21T08:35:16.725Z,1003.58
2019-05-21T08:36:09.084Z,1003.55
2019-05-21T08:37:01.397Z,1003.6
2019-05-21T08:37:27.555Z,1003.61
2019-05-21T08:38:19.894Z,1003.58
2019-05-21T08:39:38.421Z,1003.59
2019-05-21T08:40:31.546Z,1003.62
2019-05-21T08:40:57.892Z,1003.6
2019-05-21T08:41:50.150Z,1003.56
2019-05-21T08:43:08.608Z,1003.55
2019-05-21T08:44:28.071Z,1003.58
2019-05-21T08:45:20.489Z,1003.58
2019-05-21T08:45:46.632Z,1003.57
2019-05-21T08:46:38.929Z,1003.63
2019-05-21T08:47:31.265Z,1003.59
2019-05-21T08:47:57.428Z,1003.6
2019-05-21T08:48:49.774Z,1003.59
2019-05-21T08:50:08.274Z,1003.61
2019-05-21T08:51:00.620Z,1003.62
2019-05-21T08:51:26.822Z,1003.68
2019-05-21T08:52:19.169Z,1003.66
2019-05-21T08:53:11.579Z,1003.68
2019-05-21T08:53:37.676Z,1003.63
2019-05-21T08:54:30.015Z,1003.69
2019-05-21T08:55:48.460Z,1003.64
2019-05-21T08:56:40.771Z,1003.6
2019-05-21T08:57:06.942Z,1003.62
2019-05-21T08:58:06.767Z,1003.65
2019-05-21T08:58:26.423Z,1003.68
2019-05-21T08:59:18.709Z,1003.66
2019-05-21T09:00:11.105Z,1003.69
2019-05-21T09:00:37.243Z,1003.71
2019-05-21T09:01:29.590Z,1003.69
2019-05-21T09:02:48.039Z,1003.71
2019-05-21T09:03:40.393Z,1003.72
2019-05-21T09:04:06.535Z,1003.75
2019-05-21T09:04:59.887Z,1003.74
2019-05-21T09:06:18.349Z,1003.8
2019-05-21T09:07:10.666Z,1003.77
2019-05-21T09:07:36.838Z,1003.84
2019-05-21T09:08:30.179Z,1003.86
2019-05-21T09:09:51.056Z,1003.83
2019-05-21T09:11:08.184Z,1003.87
2019-05-21T09:12:00.506Z,1003.84
2019-05-21T09:12:26.704Z,1003.84
2019-05-21T09:13:19.016Z,1003.88
2019-05-21T09:14:11.361Z,1003.89
2019-05-21T09:14:37.474Z,1003.89
2019-05-21T09:15:29.803Z,1003.9
2019-05-21T09:16:48.316Z,1003.91
2019-05-21T09:17:40.609Z,1003.92
2019-05-21T09:18:06.773Z,1003.97
2019-05-21T09:18:59.086Z,1003.94
2019-05-21T09:19:51.395Z,1003.92
2019-05-21T09:20:17.556Z,1003.95
2019-05-21T09:21:09.918Z,1003.94
2019-05-21T09:22:28.480Z,1003.94
2019-05-21T09:23:20.771Z,1003.96
2019-05-21T09:23:46.935Z,1003.95
2019-05-21T09:24:39.294Z,1003.89
2019-05-21T09:25:57.834Z,1003.93
2019-05-21T09:26:50.205Z,1004
2019-05-21T09:27:16.428Z,1003.96
2019-05-21T09:28:08.712Z,1003.95
2019-05-21T09:29:01.094Z,1004
2019-05-21T09:29:27.284Z,1004.01
2019-05-21T09:30:19.609Z,1004.02
2019-05-21T09:31:38.099Z,1004.06
2019-05-21T09:32:30.415Z,1003.99
2019-05-21T09:32:56.551Z,1004.11
2019-05-21T09:33:48.902Z,1004.13
2019-05-21T09:34:48.452Z,1004.16
2019-05-21T09:35:07.491Z,1004.17
2019-05-21T09:35:59.809Z,1004.16
2019-05-21T09:37:20.362Z,1004.08
2019-05-21T09:37:46.384Z,1004.18
2019-05-21T09:38:38.723Z,1004.14
2019-05-21T09:39:31.017Z,1004.16
2019-05-21T09:39:57.214Z,1004.14
2019-05-21T09:40:49.562Z,1004.18
2019-05-21T09:42:08.048Z,1004.2
2019-05-21T09:43:00.391Z,1004.09
2019-05-21T09:43:26.530Z,1004.21
2019-05-21T09:44:18.855Z,1004.29
2019-05-21T09:45:11.135Z,1004.3
2019-05-21T09:45:37.307Z,1004.27
2019-05-21T09:46:29.643Z,1004.25
2019-05-21T09:47:48.119Z,1004.3
2019-05-21T09:48:40.558Z,1004.26
2019-05-21T09:49:06.745Z,1004.25
2019-05-21T09:49:59.155Z,1004.27
2019-05-21T09:50:51.534Z,1004.24
2019-05-21T09:51:19.916Z,1004.26
2019-05-21T09:52:11.000Z,1004.25
2019-05-21T09:52:37.152Z,1004.21
2019-05-21T09:53:29.474Z,1004.26
2019-05-21T09:54:47.946Z,1004.27
2019-05-21T09:55:41.267Z,1004.24
2019-05-21T09:56:07.407Z,1004.27
2019-05-21T09:56:59.742Z,1004.27
2019-05-21T09:58:18.186Z,1004.21
2019-05-21T09:59:10.504Z,1004.23
2019-05-21T09:59:36.718Z,1004.25
2019-05-21T10:00:29.100Z,1004.22
2019-05-21T10:01:21.563Z,1004.18
2019-05-21T10:01:48.488Z,1004.17
2019-05-21T10:02:40.866Z,1004.2
2019-05-21T10:03:07.011Z,1004.17
2019-05-21T10:03:59.300Z,1004.22
2019-05-21T10:05:17.845Z,1004.27
2019-05-21T10:06:10.206Z,1004.24
2019-05-21T10:07:38.734Z,1004.28